Latest Weather Observations for Pallamana

IDS60801

Issued at 10:05 pm CST Friday 18 April 2014 (issued every 30 minutes, with the page automatically refreshed every 10 minutes)

About weather observations | Map of weather stations | Latest weather observations for SA | Other Formats
Station Details ID: 024584 Name: PALLAMANA AERODROME Lat: -35.06 Lon: 139.23 Height: 45.0 m
Data from the previous 72 hours. | See also: Recent months at Pallamana
Date/Time
CST
Temp
°C
App
Temp
°C
Dew
Point
Rel
Hum
%
Delta-T
°C
Wind Press
QNH
hPa
Press
MSL
hPa
Rain
since 9 am
mm
Dir
 
Spd
km/h
Gust
km/h
Spd
kts
Gust
kts
18/10:00pm 8.9 7.8 6.7 86 1.0 WSW 2 7 1 4 1023.9 - 0.2
18/09:30pm 9.4 6.1 6.6 83 1.3 SW 13 15 7 8 1023.9 - 0.2
18/09:00pm 9.8 6.2 6.6 80 1.5 WSW 15 17 8 9 1023.8 1023.8 0.2
18/08:30pm 10.4 6.7 6.3 76 1.9 WSW 15 15 8 8 1023.7 - 0.2
18/08:00pm 11.4 8.2 7.0 74 2.1 SW 13 15 7 8 1023.5 - 0.2
18/07:30pm 10.8 7.1 6.1 73 2.2 WSW 15 17 8 9 1023.4 - 0.2
18/07:00pm 11.4 7.7 6.3 71 2.4 WSW 15 17 8 9 1023.3 - 0.2
18/06:30pm 11.5 7.8 6.2 70 2.5 WSW 15 15 8 8 1023.2 - 0.2
18/06:00pm 12.0 8.6 5.8 66 2.9 SW 13 17 7 9 1023.1 1023.1 0.2
18/05:30pm 14.8 9.9 5.2 52 4.5 SSW 20 26 11 14 1022.8 - 0.2
18/05:00pm 16.1 10.0 2.8 41 6.0 S 24 32 13 17 1022.6 - 0.2
18/04:30pm 16.2 11.4 5.8 50 5.0 S 20 30 11 16 1022.5 - 0.2
18/04:00pm 17.8 11.7 4.8 42 6.2 S 26 39 14 21 1022.2 - 0.2
18/03:30pm 17.3 11.3 5.5 45 5.7 SSW 26 35 14 19 1022.0 - 0.2
18/03:00pm 18.6 12.4 6.0 43 6.2 SSW 28 41 15 22 1021.8 1021.8 0.2
18/02:30pm 18.5 13.2 6.6 45 5.9 S 24 37 13 20 1021.6 - 0.2
18/02:00pm 18.3 12.7 5.3 42 6.3 S 24 37 13 20 1021.6 - 0.2
18/01:30pm 18.4 11.7 5.7 43 6.2 SSW 30 43 16 23 1021.4 - 0.2
18/01:00pm 19.0 12.5 6.6 44 6.2 SSW 30 41 16 22 1021.6 - 0.2
18/12:30pm 19.1 13.7 8.0 48 5.7 SSW 26 37 14 20 1021.9 - 0.2
18/12:00pm 18.5 13.2 9.8 57 4.6 SSW 28 41 15 22 1022.0 1022.0 0.2
18/11:30am 18.6 14.5 11.5 63 3.9 S 24 33 13 18 1022.0 - 0.2
18/11:00am 17.7 13.0 11.9 69 3.2 S 28 39 15 21 1021.9 - 0.2
18/10:30am 16.1 13.4 13.4 84 1.5 S 20 26 11 14 1021.9 - 0.2
18/10:00am 17.1 14.4 14.5 85 1.5 SSW 22 30 12 16 1021.8 - 0.0
18/09:30am 16.5 14.2 14.6 88 1.1 SW 20 28 11 15 1021.8 - 0.0
18/09:00am 16.1 14.2 14.3 89 1.0 SW 17 20 9 11 1021.5 1021.5 0.8
18/08:30am 15.2 12.9 14.0 92 0.7 WSW 19 22 10 12 1021.3 - 0.8
18/08:00am 14.7 10.5 13.6 93 0.6 SW 28 35 15 19 1021.0 - 0.8
18/07:45am 15.4 11.2 13.6 89 1.0 SW 28 41 15 22 1020.6 - 0.4
18/07:30am 16.8 15.5 13.6 81 1.8 W 13 15 7 8 1020.1 - 0.0
18/07:00am 16.7 14.8 12.9 78 2.1 W 15 20 8 11 1019.5 - 0.0
18/06:30am 16.2 14.6 12.8 80 1.9 W 13 19 7 10 1019.4 - 0.0
18/06:00am 15.7 13.6 12.4 81 1.8 W 15 20 8 11 1019.2 1019.2 0.0
18/05:30am 14.4 12.5 11.8 84 1.4 W 13 17 7 9 1019.0 - 0.0
18/05:00am 14.3 12.0 11.7 84 1.4 W 15 17 8 9 1018.9 - 0.0
18/04:30am 13.8 12.6 11.5 86 1.2 WNW 9 11 5 6 1018.7 - 0.0
18/04:00am 14.4 12.9 12.0 85 1.3 W 11 13 6 7 1018.9 - 0.0
18/03:30am 14.9 13.2 12.3 84 1.4 W 13 15 7 8 1018.8 - 0.0
18/03:00am 13.0 10.9 11.3 89 0.9 W 13 15 7 8 1018.8 1018.8 0.0
18/02:30am 11.2 8.8 10.0 92 0.6 N 13 15 7 8 1018.6 - 0.0
18/02:00am 10.5 9.6 9.1 91 0.7 E 4 9 2 5 1018.9 - 0.0
18/01:30am 11.1 9.7 9.5 90 0.8 SSE 7 7 4 4 1019.2 - 0.0
18/01:00am 13.8 11.5 10.5 80 1.7 WNW 13 17 7 9 1018.9 - 0.0
18/12:30am 14.0 11.7 10.4 79 1.9 NW 13 15 7 8 1018.8 - 0.0
18/12:00am 14.7 12.5 10.7 77 2.1 WNW 13 13 7 7 1019.3 1019.3 0.0
 
Date/Time
CST
Temp
°C
App
Temp
°C
Dew
Point
Rel
Hum
%
Delta-T
°C
Wind Press
QNH
hPa
Press
MSL
hPa
Rain
since 9 am
mm
Dir
 
Spd
km/h
Gust
km/h
Spd
kts
Gust
kts
17/11:30pm 14.7 13.0 11.3 80 1.8 WNW 11 11 6 6 1019.4 - 0.0
17/11:00pm 12.8 12.7 10.9 88 1.0 WNW 2 9 1 5 1019.7 - 0.0
17/10:30pm 13.6 12.3 11.1 85 1.3 WNW 9 13 5 7 1019.9 - 0.0
17/10:00pm 13.2 12.0 11.7 91 0.8 WNW 9 11 5 6 1020.1 - 0.0
17/09:30pm 13.1 12.2 11.4 89 0.9 WNW 7 9 4 5 1020.0 - 0.0
17/09:00pm 13.4 13.9 11.5 88 1.0 CALM 0 0 0 0 1020.0 1020.0 0.0
17/08:30pm 14.1 14.7 11.9 86 1.2 CALM 0 0 0 0 1019.8 - 0.0
17/08:00pm 15.1 14.7 12.5 84 1.4 SW 6 6 3 3 1019.7 - 0.0
17/07:30pm 14.7 13.6 12.1 84 1.4 SW 9 11 5 6 1019.8 - 0.0
17/07:00pm 17.3 16.5 13.0 76 2.4 WSW 9 11 5 6 1019.6 - 0.0
17/06:30pm 17.6 16.6 12.4 71 2.9 SW 9 9 5 5 1019.5 - 0.0
17/06:00pm 18.7 18.3 12.4 67 3.5 SSW 6 7 3 4 1019.2 1019.2 0.0
17/05:30pm 20.6 19.2 12.2 58 4.7 S 11 15 6 8 1018.9 - 0.0
17/05:00pm 22.8 21.3 9.0 41 7.4 W 7 11 4 6 1018.7 - 0.0
17/04:30pm 23.4 20.9 8.3 38 8.0 WNW 11 13 6 7 1018.6 - 0.0
17/04:00pm 24.1 21.2 8.1 36 8.5 W 13 19 7 10 1018.8 - 0.0
17/03:30pm 23.8 21.7 8.4 37 8.2 NW 9 17 5 9 1018.9 - 0.0
17/03:00pm 23.9 20.4 7.2 34 8.7 WNW 15 20 8 11 1018.9 1018.9 0.0
17/02:30pm 24.3 22.0 8.9 37 8.3 WNW 11 17 6 9 1019.2 - 0.0
17/02:00pm 24.3 22.4 10.6 42 7.6 NNW 11 19 6 10 1019.3 - 0.0
17/01:30pm 22.4 20.4 10.1 45 6.7 WNW 11 15 6 8 1019.8 - 0.0
17/01:00pm 23.1 21.0 11.0 46 6.7 NW 13 19 7 10 1020.3 - 0.0
17/12:30pm 22.6 20.9 11.3 48 6.3 NNW 11 19 6 10 1020.8 - 0.0
17/12:00pm 22.1 21.4 11.9 52 5.7 N 7 13 4 7 1021.3 1021.3 0.0
17/11:30am 21.2 20.1 12.1 56 5.1 NW 9 15 5 8 1021.8 - 0.0
17/11:00am 20.6 20.1 12.2 58 4.7 W 6 9 3 5 1021.8 - 0.0
17/10:30am 20.1 19.1 12.2 60 4.4 SSE 9 13 5 7 1021.8 - 0.0
17/10:00am 19.5 18.6 11.5 60 4.4 N 7 11 4 6 1022.0 - 0.0
17/09:30am 18.8 17.8 11.1 61 4.2 N 7 11 4 6 1022.0 - 0.0
17/09:00am 17.8 17.0 11.6 67 3.4 N 7 11 4 6 1022.0 1022.0 0.0
17/08:30am 15.9 14.8 11.8 76 2.2 N 9 11 5 6 1021.9 - 0.0
17/08:00am 13.3 13.1 11.8 91 0.8 N 4 6 2 3 1021.9 - 0.0
17/07:30am 11.0 10.7 10.2 95 0.4 N 2 6 1 3 1021.6 - 0.0
17/07:00am 9.3 7.6 8.5 95 0.4 N 7 7 4 4 1021.3 - 0.0
17/06:30am 8.5 8.0 7.7 95 0.4 CALM 0 0 0 0 1021.0 - 0.0
17/06:00am 8.6 8.0 7.5 93 0.5 CALM 0 7 0 4 1020.9 1020.9 0.0
17/05:30am 10.0 8.0 8.8 92 0.6 NNW 9 11 5 6 1020.6 - 0.0
17/05:00am 9.0 6.5 8.0 93 0.5 NW 11 13 6 7 1020.4 - 0.0
17/04:30am 8.8 7.1 7.7 93 0.5 NW 6 7 3 4 1020.4 - 0.0
17/04:00am 8.5 6.5 7.0 90 0.7 WNW 7 9 4 5 1020.2 - 0.0
17/03:30am 8.6 6.7 6.9 89 0.8 W 6 6 3 3 1020.1 - 0.0
17/03:00am 9.8 8.6 7.9 88 0.9 N 4 7 2 4 1020.1 1020.1 0.0
17/02:30am 8.8 7.0 7.1 89 0.8 N 6 7 3 4 1020.2 - 0.0
17/02:00am 9.9 9.0 7.6 85 1.1 WNW 2 9 1 5 1020.4 - 0.0
17/01:30am 9.9 8.9 7.4 84 1.2 W 2 7 1 4 1020.5 - 0.0
17/01:00am 10.1 8.8 7.8 86 1.1 W 4 7 2 4 1020.5 - 0.0
17/12:30am 10.6 9.8 8.3 86 1.1 WNW 2 9 1 5 1020.4 - 0.0
17/12:00am 9.7 9.2 8.0 89 0.8 CALM 0 0 0 0 1020.4 1020.4 0.0
 
Date/Time
CST
Temp
°C
App
Temp
°C
Dew
Point
Rel
Hum
%
Delta-T
°C
Wind Press
QNH
hPa
Press
MSL
hPa
Rain
since 9 am
mm
Dir
 
Spd
km/h
Gust
km/h
Spd
kts
Gust
kts
16/11:30pm 10.3 10.0 8.7 90 0.8 CALM 0 6 0 3 1020.6 - 0.0
16/11:00pm 10.2 8.7 8.3 88 0.9 WSW 6 7 3 4 1020.7 - 0.0
16/10:30pm 10.6 10.3 8.6 87 1.0 CALM 0 0 0 0 1020.7 - 0.0
16/10:00pm 11.8 10.9 9.4 85 1.2 WSW 4 7 2 4 1020.8 - 0.0
16/09:30pm 12.5 10.7 9.5 82 1.5 W 9 11 5 6 1020.8 - 0.0
16/09:00pm 14.3 12.0 10.3 77 2.1 W 13 15 7 8 1020.7 1020.7 0.0
16/08:30pm 13.7 12.6 10.8 83 1.5 WSW 7 17 4 9 1020.5 - 0.0
16/08:00pm 11.9 11.0 9.1 83 1.4 SW 4 7 2 4 1020.1 - 0.0
16/07:30pm 15.2 13.9 11.1 76 2.2 SW 9 9 5 5 1020.1 - 0.0
16/07:00pm 14.8 13.4 10.8 77 2.1 SSW 9 13 5 7 1020.0 - 0.0
16/06:30pm 15.9 13.9 10.0 68 3.1 SSW 11 13 6 7 1019.7 - 0.0
16/06:00pm 16.4 14.4 10.1 66 3.3 S 11 13 6 7 1019.4 1019.4 0.0
16/05:30pm 18.8 16.3 9.7 55 4.8 SSW 13 17 7 9 1019.3 - 0.0
16/05:00pm 22.0 18.3 6.2 36 8.0 SW 15 20 8 11 1018.9 - 0.0
16/04:30pm 22.7 18.4 5.3 32 8.7 SW 17 20 9 11 1018.7 - 0.0
16/04:00pm 22.8 19.2 5.1 31 8.8 WSW 13 19 7 10 1018.5 - 0.0
16/03:30pm 23.0 18.9 4.3 29 9.2 WSW 15 20 8 11 1018.7 - 0.0
16/03:00pm 23.5 19.7 6.0 32 8.9 W 15 20 8 11 1018.7 1018.7 0.0
16/02:30pm 23.7 20.9 6.9 34 8.7 W 11 22 6 12 1018.7 - 0.0
16/02:00pm 23.5 19.9 6.9 34 8.6 W 15 22 8 12 1018.6 - 0.0
16/01:30pm 22.9 19.9 6.2 34 8.5 W 11 20 6 11 1018.6 - 0.0
16/01:00pm 22.8 19.1 6.3 34 8.4 W 15 19 8 10 1019.0 - 0.0
16/12:30pm 22.8 19.7 7.1 36 8.1 WNW 13 19 7 10 1019.5 - 0.0
16/12:00pm 22.5 19.4 7.2 37 7.9 NW 13 19 7 10 1019.6 1019.6 0.0
16/11:30am 22.3 19.2 7.4 38 7.7 WNW 13 20 7 11 1020.3 - 0.0
16/11:00am 21.8 19.7 9.7 46 6.5 NNW 11 19 6 10 1020.7 - 0.0
16/10:30am 20.5 18.9 10.3 52 5.5 NNW 9 15 5 8 1020.8 - 0.0
16/10:00am 19.5 17.1 9.9 54 5.1 NNE 13 19 7 10 1020.6 - 0.0
16/09:30am 18.3 16.6 11.1 63 3.9 N 11 17 6 9 1020.8 - 0.0
16/09:00am 16.2 15.1 12.0 76 2.3 N 9 11 5 6 1021.2 1021.2 0.0
16/08:30am 13.7 12.9 11.8 88 1.0 NW 7 9 4 5 1021.4 - 0.0
16/08:00am 11.0 9.7 10.0 93 0.5 N 7 9 4 5 1020.9 - 0.0
16/07:30am 10.8 9.7 9.8 93 0.5 N 6 7 3 4 1021.1 - 0.0
16/07:00am 8.8 7.2 8.2 96 0.3 SW 6 6 3 3 1021.2 - 0.0
16/06:30am 7.8 6.0 7.2 96 0.3 NE 6 7 3 4 1020.9 - 0.0
16/06:00am 7.9 6.9 7.3 96 0.3 NNW 2 6 1 3 1021.0 1021.0 0.0
16/05:30am 8.7 8.2 7.9 95 0.4 CALM 0 6 0 3 1020.7 - 0.0
16/05:00am 9.0 7.4 8.0 93 0.5 NW 6 7 3 4 1020.6 - 0.0
16/04:30am 9.5 9.2 8.5 93 0.5 CALM 0 7 0 4 1020.5 - 0.0
16/04:00am 10.3 9.0 9.3 93 0.5 N 6 9 3 5 1020.5 - 0.0
16/03:30am 11.9 9.9 10.3 90 0.8 W 11 15 6 8 1020.7 - 0.0
16/03:00am 12.1 9.1 10.7 91 0.7 W 17 19 9 10 1021.2 1021.2 0.0
16/02:30am 11.9 8.9 10.5 91 0.7 W 17 20 9 11 1021.3 - 0.0
16/02:00am 12.1 9.1 10.7 91 0.7 W 17 20 9 11 1021.6 - 0.0
16/01:30am 11.9 9.7 10.7 92 0.6 W 13 17 7 9 1021.8 - 0.0
16/01:00am 12.5 9.7 11.2 92 0.7 W 17 20 9 11 1022.1 - 0.0
16/12:30am 12.7 10.2 11.2 91 0.8 W 15 17 8 9 1021.9 - 0.0
16/12:00am 12.8 9.6 11.3 91 0.8 W 19 20 10 11 1022.0 1022.0 0.0
 
Date/Time
CST
Temp
°C
App
Temp
°C
Dew
Point
Rel
Hum
%
Delta-T
°C
Wind Press
QNH
hPa
Press
MSL
hPa
Rain
since 9 am
mm
Dir
 
Spd
km/h
Gust
km/h
Spd
kts
Gust
kts
15/11:30pm 12.6 9.8 11.3 92 0.7 W 17 20 9 11 1022.0 - 0.0
15/11:00pm 12.6 9.8 11.5 93 0.6 W 17 20 9 11 1022.4 - 0.0
15/10:30pm 12.3 9.4 11.0 92 0.7 W 17 20 9 11 1022.7 - 0.0

Other Formats:

Comma delimited format used in spreadsheet applications
http://www.bom.gov.au/fwo/IDS60801/IDS60801.95818.axf

JavaScript Object Notation format (JSON) in row-major order
http://www.bom.gov.au/fwo/IDS60801/IDS60801.95818.json